Time;durP1;ratioP1;P1;durP2;ratioP2;P2;SDS_P1;SDS_P2;PMS_P1;PMS_P2;Temp;Humidity;BMP_temperature;BMP_pressure;BME280_temperature;BME280_humidity;BME280_pressure;Samples;Min_cycle;Max_cycle;Signal;HPM_P1;HPM_P2
2021/10/26 00:01:46;;;;;;;4.33;2.73;;;17.60;64.20;;;;;;10496498;28;20196;-68
2021/10/26 00:07:09;;;;;;;2.90;2.60;;;17.60;64.10;;;;;;10495146;28;20224;-68
2021/10/26 00:12:31;;;;;;;4.27;3.13;;;17.60;64.10;;;;;;10496144;28;20703;-69
2021/10/26 00:17:53;;;;;;;3.70;2.80;;;17.60;64.10;;;;;;10494932;28;20212;-68
2021/10/26 00:23:17;;;;;;;5.17;3.23;;;17.60;64.20;;;;;;10494638;28;20188;-69
2021/10/26 00:28:39;;;;;;;3.13;2.63;;;17.50;64.30;;;;;;10494691;28;20220;-68
2021/10/26 00:34:02;;;;;;;3.30;2.90;;;17.50;64.50;;;;;;10490975;28;20220;-68
2021/10/26 00:39:25;;;;;;;3.13;2.27;;;17.50;64.50;;;;;;10493961;28;20289;-68
2021/10/26 00:44:48;;;;;;;3.60;3.10;;;17.50;64.40;;;;;;10493567;28;20211;-68
2021/10/26 00:50:11;;;;;;;4.30;3.13;;;17.60;64.30;;;;;;10493059;28;20241;-68
2021/10/26 00:55:34;;;;;;;4.30;3.47;;;17.60;64.40;;;;;;10493935;28;20231;-68
2021/10/26 01:00:56;;;;;;;3.93;3.27;;;17.60;64.40;;;;;;10472566;28;20205;-67
2021/10/26 01:06:19;;;;;;;5.50;3.73;;;17.50;64.50;;;;;;10452461;28;20225;-68
2021/10/26 01:11:44;;;;;;;4.47;3.33;;;17.50;64.80;;;;;;10451104;28;20581;-69
2021/10/26 01:17:09;;;;;;;6.57;3.33;;;17.50;64.90;;;;;;10451418;28;20220;-68
2021/10/26 01:22:39;;;;;;;4.37;3.07;;;17.50;64.90;;;;;;10457064;28;20197;-68
2021/10/26 01:28:01;;;;;;;4.57;3.30;;;17.50;64.80;;;;;;10486097;28;20208;-68
2021/10/26 01:33:24;;;;;;;5.77;3.80;;;17.60;64.90;;;;;;10495377;28;20208;-68
2021/10/26 01:38:48;;;;;;;5.27;4.47;;;17.60;64.90;;;;;;10492864;28;20220;-68
2021/10/26 01:44:10;;;;;;;5.23;4.00;;;17.60;65.00;;;;;;10492501;28;20199;-68
2021/10/26 01:49:32;;;;;;;4.73;4.00;;;17.50;65.10;;;;;;10492298;28;20239;-68
2021/10/26 01:54:55;;;;;;;5.93;4.27;;;17.50;65.30;;;;;;10495018;28;20223;-69
2021/10/26 02:00:19;;;;;;;4.43;2.80;;;17.50;65.40;;;;;;10480112;28;20569;-68
2021/10/26 02:05:41;;;;;;;4.33;3.20;;;17.50;65.30;;;;;;10458556;28;20671;-68
2021/10/26 02:11:04;;;;;;;3.77;3.40;;;17.60;65.30;;;;;;10418304;28;20711;-68
2021/10/26 02:16:26;;;;;;;6.43;4.90;;;17.60;65.20;;;;;;10417437;28;20736;-68
2021/10/26 02:21:48;;;;;;;6.13;4.93;;;17.60;65.40;;;;;;10417755;28;20193;-68
2021/10/26 02:27:12;;;;;;;6.50;4.80;;;17.60;65.50;;;;;;10459266;28;20591;-68
2021/10/26 02:32:34;;;;;;;6.10;4.90;;;17.50;65.70;;;;;;10453047;28;20201;-68
2021/10/26 02:37:57;;;;;;;4.47;4.03;;;17.50;65.90;;;;;;10458962;28;20695;-68
2021/10/26 02:43:20;;;;;;;4.27;3.13;;;17.50;65.90;;;;;;10457995;28;20193;-68
2021/10/26 02:48:43;;;;;;;5.23;3.50;;;17.60;65.70;;;;;;10457810;28;20288;-68
2021/10/26 02:54:06;;;;;;;7.30;4.50;;;17.50;65.70;;;;;;10458111;28;20339;-68
2021/10/26 02:59:29;;;;;;;5.60;4.50;;;17.60;65.80;;;;;;10457227;28;20338;-68
2021/10/26 03:04:51;;;;;;;5.50;4.70;;;17.60;65.90;;;;;;10457563;28;20190;-68
2021/10/26 03:10:15;;;;;;;5.23;4.73;;;17.50;66.00;;;;;;10495697;28;20228;-68
2021/10/26 03:15:39;;;;;;;6.73;4.87;;;17.50;66.10;;;;;;10498231;28;20776;-68
2021/10/26 03:21:01;;;;;;;4.03;3.20;;;17.50;66.30;;;;;;10497564;28;20211;-68
2021/10/26 03:26:23;;;;;;;3.47;3.07;;;17.50;66.10;;;;;;10497084;28;20216;-68
2021/10/26 03:31:49;;;;;;;5.73;3.93;;;17.50;65.90;;;;;;10496481;28;20571;-69
2021/10/26 03:37:11;;;;;;;4.20;3.47;;;17.50;65.90;;;;;;10497067;28;20595;-68
2021/10/26 03:42:33;;;;;;;3.67;2.80;;;17.60;65.90;;;;;;10499441;28;20195;-68
2021/10/26 03:47:56;;;;;;;4.50;3.10;;;17.60;65.70;;;;;;10497043;28;20217;-68
2021/10/26 03:53:18;;;;;;;3.20;2.80;;;17.70;65.50;;;;;;10496504;28;20212;-68
2021/10/26 03:58:42;;;;;;;6.77;3.23;;;17.70;65.40;;;;;;10498201;28;20919;-68
2021/10/26 04:04:05;;;;;;;3.50;3.20;;;17.70;65.30;;;;;;10455025;28;20193;-68
2021/10/26 04:09:32;;;;;;;4.70;3.50;;;17.70;65.30;;;;;;10424612;23;20229;-67
2021/10/26 04:14:56;;;;;;;3.63;3.27;;;17.80;65.40;;;;;;10370261;28;20695;-67
2021/10/26 04:20:19;;;;;;;4.20;3.60;;;17.70;65.40;;;;;;10370483;28;20707;-66
2021/10/26 04:25:41;;;;;;;4.83;3.47;;;17.80;65.50;;;;;;10369334;28;20202;-66
2021/10/26 04:31:05;;;;;;;4.37;3.20;;;17.80;65.40;;;;;;10329195;28;20688;-66
2021/10/26 04:36:29;;;;;;;4.77;3.50;;;17.80;65.30;;;;;;10330519;28;20263;-67
2021/10/26 04:41:52;;;;;;;4.33;3.43;;;17.80;65.30;;;;;;10335938;28;20583;-68
2021/10/26 04:47:15;;;;;;;4.77;3.47;;;17.80;65.20;;;;;;10362875;28;20702;-68
2021/10/26 04:52:39;;;;;;;3.90;3.37;;;17.80;65.20;;;;;;10368889;28;20691;-67
2021/10/26 04:58:01;;;;;;;4.07;3.10;;;17.90;65.30;;;;;;10369354;28;20213;-66
2021/10/26 05:03:23;;;;;;;3.90;3.50;;;17.90;65.20;;;;;;10369354;28;20194;-67
2021/10/26 05:08:52;;;;;;;4.23;3.20;;;17.90;65.20;;;;;;10369354;28;20226;-66
2021/10/26 05:14:14;;;;;;;3.70;3.03;;;17.90;65.20;;;;;;10368598;28;20214;-68
2021/10/26 05:19:37;;;;;;;3.87;3.40;;;17.90;65.30;;;;;;10368083;28;20762;-67
2021/10/26 05:25:00;;;;;;;3.90;3.20;;;17.90;65.30;;;;;;10367521;28;20576;-67
2021/10/26 05:30:22;;;;;;;4.57;3.60;;;17.90;65.20;;;;;;10369195;28;20218;-66
2021/10/26 05:35:45;;;;;;;3.83;3.17;;;17.90;65.30;;;;;;10368383;28;20230;-67
2021/10/26 05:41:10;;;;;;;4.13;3.27;;;17.90;65.30;;;;;;10370617;28;20751;-68
2021/10/26 05:46:32;;;;;;;4.17;3.70;;;17.90;65.30;;;;;;10369080;28;20191;-67
2021/10/26 05:51:55;;;;;;;3.60;3.27;;;17.90;65.30;;;;;;10363829;28;20218;-67
2021/10/26 05:57:18;;;;;;;4.10;3.07;;;17.90;65.40;;;;;;10367639;28;20591;-67
2021/10/26 06:02:40;;;;;;;5.20;3.60;;;18.00;65.50;;;;;;10367046;28;20210;-68
2021/10/26 06:08:02;;;;;;;4.33;3.17;;;17.90;65.40;;;;;;10367689;28;20466;-69
2021/10/26 06:13:29;;;;;;;4.97;3.50;;;18.00;65.40;;;;;;10375295;28;20225;-67
2021/10/26 06:18:51;;;;;;;4.93;3.27;;;17.90;65.40;;;;;;10358463;28;20218;-68
2021/10/26 06:24:14;;;;;;;3.60;3.03;;;17.90;65.60;;;;;;10366652;28;20224;-70
2021/10/26 06:29:37;;;;;;;3.90;3.43;;;17.90;65.60;;;;;;10366357;28;20323;-68
2021/10/26 06:35:00;;;;;;;3.80;3.40;;;17.90;65.70;;;;;;10364063;28;20229;-68
2021/10/26 06:40:22;;;;;;;4.40;3.40;;;17.90;65.70;;;;;;10357621;28;20222;-68
2021/10/26 06:45:45;;;;;;;4.00;3.30;;;17.90;65.90;;;;;;10361682;28;20191;-68
2021/10/26 06:51:08;;;;;;;4.70;3.57;;;17.90;65.70;;;;;;10367138;28;20233;-68
2021/10/26 06:56:30;;;;;;;5.10;3.60;;;17.90;65.70;;;;;;10366610;28;20218;-65
2021/10/26 07:01:53;;;;;;;5.70;3.63;;;18.00;66.00;;;;;;10372567;28;20218;-65
2021/10/26 07:07:15;;;;;;;4.47;3.57;;;18.00;66.00;;;;;;10360803;28;20202;-68
2021/10/26 07:12:38;;;;;;;6.33;3.67;;;18.00;66.20;;;;;;10384669;28;21247;-69
2021/10/26 07:18:01;;;;;;;4.67;3.73;;;18.00;66.20;;;;;;10367656;28;20219;-67
2021/10/26 07:23:24;;;;;;;5.50;4.10;;;18.00;66.20;;;;;;10363767;28;20588;-66
2021/10/26 07:28:46;;;;;;;5.63;3.87;;;18.00;66.30;;;;;;10369623;28;20226;-67
2021/10/26 07:34:12;;;;;;;7.17;3.63;;;18.00;66.20;;;;;;10359239;28;20222;-66
2021/10/26 07:39:43;;;;;;;4.23;3.10;;;18.00;66.30;;;;;;10368840;28;20222;-68
2021/10/26 07:45:07;;;;;;;5.43;3.07;;;18.00;66.40;;;;;;10369184;28;20198;-67
2021/10/26 07:50:30;;;;;;;4.00;3.40;;;17.90;66.60;;;;;;10380289;28;20225;-66
2021/10/26 07:55:53;;;;;;;4.53;3.30;;;18.00;66.80;;;;;;10361457;28;20215;-67
2021/10/26 08:01:15;;;;;;;4.80;2.93;;;17.90;66.70;;;;;;10366493;28;20218;-67
2021/10/26 08:06:39;;;;;;;5.57;3.40;;;18.00;66.50;;;;;;10370196;28;20199;-66
2021/10/26 08:12:02;;;;;;;4.47;2.77;;;17.90;66.50;;;;;;10362891;28;20218;-66
2021/10/26 08:17:24;;;;;;;4.50;2.83;;;17.90;66.40;;;;;;10364425;28;20703;-66
2021/10/26 08:22:48;;;;;;;6.50;4.00;;;17.90;66.40;;;;;;10367972;28;20219;-65
2021/10/26 08:28:14;;;;;;;8.93;4.00;;;18.00;66.70;;;;;;10378105;28;20248;-67
2021/10/26 08:33:41;;;;;;;3.93;3.50;;;18.00;66.50;;;;;;10367706;28;20564;-67
2021/10/26 08:39:07;;;;;;;5.63;3.93;;;18.00;66.40;;;;;;10362098;28;20303;-66
2021/10/26 08:44:30;;;;;;;5.30;3.43;;;18.00;66.50;;;;;;10366632;28;20205;-66
2021/10/26 08:49:53;;;;;;;4.13;3.40;;;18.00;66.40;;;;;;10369826;28;20222;-66
2021/10/26 08:55:17;;;;;;;6.37;4.07;;;18.00;66.40;;;;;;10357973;28;20222;-66
2021/10/26 09:00:40;;;;;;;6.10;3.77;;;18.00;66.40;;;;;;10368661;28;20218;-65
2021/10/26 09:06:03;;;;;;;5.07;3.43;;;18.10;66.40;;;;;;10368218;28;20194;-68
2021/10/26 09:11:38;;;;;;;5.73;3.03;;;18.00;66.30;;;;;;10367875;28;20218;-66
2021/10/26 09:17:00;;;;;;;4.07;3.20;;;18.10;66.40;;;;;;10358913;28;20230;-66
2021/10/26 09:22:23;;;;;;;5.80;3.60;;;18.00;66.40;;;;;;10364279;28;20633;-69
2021/10/26 09:27:47;;;;;;;4.63;3.70;;;18.10;66.50;;;;;;10368028;28;20676;-68
2021/10/26 09:33:09;;;;;;;6.63;4.17;;;18.10;66.60;;;;;;10353725;28;20206;-68
2021/10/26 09:38:32;;;;;;;4.77;3.77;;;18.10;66.50;;;;;;10366830;28;20226;-67
2021/10/26 09:44:09;;;;;;;5.03;3.70;;;18.10;66.40;;;;;;10365396;28;20670;-67
2021/10/26 09:49:34;;;;;;;5.20;3.93;;;18.10;66.30;;;;;;10367648;28;20222;-64
2021/10/26 09:55:15;;;;;;;8.13;4.10;;;18.10;66.40;;;;;;10367813;28;20337;-64
2021/10/26 10:00:42;;;;;;;6.97;5.23;;;18.20;66.30;;;;;;10367429;28;20213;-67
2021/10/26 10:06:06;;;;;;;5.37;4.00;;;18.20;66.20;;;;;;10374736;28;20197;-67
2021/10/26 10:11:27;;;;;;;5.13;4.13;;;18.10;66.10;;;;;;10370284;28;20364;-65
2021/10/26 10:16:53;;;;;;;4.67;3.97;;;18.10;66.10;;;;;;10366420;28;20301;-65
2021/10/26 10:22:15;;;;;;;7.17;4.13;;;18.10;66.20;;;;;;10362724;28;20221;-65
2021/10/26 10:27:40;;;;;;;5.30;4.17;;;18.10;66.20;;;;;;10373597;28;20198;-63
2021/10/26 10:33:04;;;;;;;6.00;4.10;;;18.10;66.20;;;;;;10358811;28;20198;-63
2021/10/26 10:38:27;;;;;;;4.80;3.73;;;18.10;66.30;;;;;;10372937;28;20229;-62
2021/10/26 10:43:50;;;;;;;4.10;3.30;;;18.00;66.20;;;;;;10370711;28;20191;-62
2021/10/26 10:49:45;;;;;;;5.03;3.17;;;18.00;66.40;;;;;;10373503;28;20210;-62
2021/10/26 10:55:22;;;;;;;5.67;3.10;;;18.10;66.40;;;;;;10373176;28;20303;-61
2021/10/26 11:00:45;;;;;;;5.03;3.30;;;18.10;66.50;;;;;;10368812;28;20587;-61
2021/10/26 11:06:09;;;;;;;4.87;3.00;;;18.00;66.50;;;;;;10372724;28;20571;-62
2021/10/26 11:11:31;;;;;;;3.97;2.83;;;18.00;66.50;;;;;;10372883;28;20300;-62
2021/10/26 11:16:53;;;;;;;4.97;3.23;;;18.10;66.50;;;;;;10359076;28;20210;-63
2021/10/26 11:22:48;;;;;;;3.23;2.73;;;18.10;66.40;;;;;;10371302;28;20711;-65
2021/10/26 11:28:38;;;;;;;7.10;3.77;;;18.10;66.40;;;;;;10366363;28;20233;-64
2021/10/26 11:34:04;;;;;;;4.50;3.40;;;18.10;65.90;;;;;;10370081;28;20207;-65
2021/10/26 11:39:27;;;;;;;5.07;3.03;;;18.10;65.90;;;;;;10370614;28;20360;-64
2021/10/26 11:44:50;;;;;;;5.73;3.47;;;18.20;65.80;;;;;;10371490;28;20194;-64
2021/10/26 11:50:12;;;;;;;5.40;3.87;;;18.20;65.80;;;;;;10371195;28;20221;-64
2021/10/26 11:55:35;;;;;;;5.40;4.20;;;18.10;65.70;;;;;;10371611;28;20595;-65
2021/10/26 12:01:01;;;;;;;8.13;3.93;;;18.20;65.90;;;;;;10370099;28;20233;-64
2021/10/26 12:06:31;;;;;;;5.93;3.30;;;18.10;65.70;;;;;;10368426;28;20193;-65
2021/10/26 12:11:57;;;;;;;6.90;2.97;;;18.10;65.60;;;;;;10368439;28;20305;-65
2021/10/26 12:17:26;;;;;;;4.73;3.17;;;18.10;65.80;;;;;;10368373;28;20210;-65
2021/10/26 12:22:50;;;;;;;5.77;3.43;;;18.00;65.90;;;;;;10369714;28;20229;-65
2021/10/26 12:28:13;;;;;;;6.87;3.43;;;18.00;66.10;;;;;;10370155;28;20214;-64
2021/10/26 12:33:37;;;;;;;3.67;2.93;;;18.00;66.20;;;;;;10369088;28;20234;-65
2021/10/26 12:39:04;;;;;;;6.23;3.60;;;18.00;66.60;;;;;;10362710;28;20589;-65
2021/10/26 12:44:29;;;;;;;4.50;2.90;;;18.00;66.20;;;;;;10369243;28;20190;-65
2021/10/26 12:49:52;;;;;;;5.73;2.90;;;18.00;66.30;;;;;;10369173;28;20229;-65
2021/10/26 12:55:15;;;;;;;6.40;3.00;;;18.00;66.40;;;;;;10369588;28;20707;-64
2021/10/26 13:00:47;;;;;;;5.90;2.90;;;18.00;66.40;;;;;;10368458;28;20215;-65
2021/10/26 13:06:11;;;;;;;6.17;2.73;;;18.10;65.80;;;;;;10369580;28;20190;-64
2021/10/26 13:11:36;;;;;;;4.53;2.50;;;18.00;66.00;;;;;;10368599;28;20221;-65
2021/10/26 13:16:58;;;;;;;3.23;2.20;;;18.10;66.00;;;;;;10368716;28;20316;-65
2021/10/26 13:22:21;;;;;;;3.17;2.40;;;18.00;66.00;;;;;;10364647;28;20218;-65
2021/10/26 13:27:45;;;;;;;3.20;2.23;;;18.00;66.10;;;;;;10367163;28;20195;-65
2021/10/26 13:33:07;;;;;;;4.17;2.97;;;18.00;65.90;;;;;;10363651;28;20338;-64
2021/10/26 13:38:32;;;;;;;5.20;2.70;;;18.00;65.60;;;;;;10364565;28;20293;-64
2021/10/26 13:43:54;;;;;;;2.43;1.93;;;18.10;65.90;;;;;;10361930;28;20568;-65
2021/10/26 13:49:16;;;;;;;3.00;2.23;;;18.10;65.90;;;;;;10366283;28;20222;-65
2021/10/26 13:54:40;;;;;;;4.83;2.57;;;18.10;65.90;;;;;;10348900;28;20198;-65
2021/10/26 14:00:08;;;;;;;5.43;2.30;;;18.10;66.00;;;;;;10362966;28;20226;-65
2021/10/26 14:05:30;;;;;;;5.63;2.73;;;18.10;66.00;;;;;;10366271;28;20194;-66
2021/10/26 14:10:54;;;;;;;3.93;2.53;;;18.10;66.00;;;;;;10365427;28;20218;-64
2021/10/26 14:16:16;;;;;;;4.63;2.20;;;18.10;66.10;;;;;;10363187;28;20579;-66
2021/10/26 14:21:38;;;;;;;3.33;2.20;;;18.00;66.10;;;;;;10363878;28;20226;-65
2021/10/26 14:27:02;;;;;;;3.57;2.37;;;18.10;66.30;;;;;;10362089;28;20568;-66
2021/10/26 14:32:24;;;;;;;3.87;2.10;;;18.10;66.20;;;;;;10362856;28;20676;-67
2021/10/26 14:37:51;;;;;;;3.33;2.03;;;18.10;66.20;;;;;;10365321;28;20214;-65
2021/10/26 14:54:37;;;;;;;3.57;2.30;;;18.10;65.90;;;;;;10367281;28;20182;-65
2021/10/26 15:00:01;;;;;;;4.70;2.43;;;18.10;65.80;;;;;;10366073;28;20256;-65
2021/10/26 15:05:26;;;;;;;3.93;2.07;;;18.10;65.70;;;;;;10366376;28;20277;-65
2021/10/26 15:10:50;;;;;;;3.70;2.17;;;18.20;65.80;;;;;;10368071;28;20233;-67
2021/10/26 15:16:15;;;;;;;3.07;1.80;;;18.20;65.60;;;;;;10374058;28;20569;-65
2021/10/26 15:21:41;;;;;;;5.83;2.63;;;18.20;65.60;;;;;;10372355;28;20218;-65
2021/10/26 15:38:26;;;;;;;4.13;2.50;;;18.20;65.60;;;;;;10370853;28;20219;-66
2021/10/26 15:43:49;;;;;;;2.90;2.03;;;18.10;65.50;;;;;;10372403;28;20207;-65
2021/10/26 15:49:12;;;;;;;3.10;2.10;;;18.20;65.50;;;;;;10358033;28;20583;-68
2021/10/26 15:54:35;;;;;;;3.27;2.10;;;18.20;65.60;;;;;;10369749;28;20190;-65
2021/10/26 15:59:58;;;;;;;3.60;2.10;;;18.20;65.60;;;;;;10371692;28;20223;-65
2021/10/26 16:05:22;;;;;;;4.57;2.00;;;18.10;65.50;;;;;;10371772;28;20226;-66
2021/10/26 16:10:47;;;;;;;2.43;1.83;;;18.20;65.50;;;;;;10422728;23;20229;-65
2021/10/26 16:16:20;;;;;;;3.67;2.00;;;18.20;65.60;;;;;;10405953;28;20364;-65
2021/10/26 16:21:44;;;;;;;2.83;1.97;;;18.20;65.60;;;;;;10376550;28;20225;-65
2021/10/26 16:27:08;;;;;;;2.50;1.80;;;18.20;65.60;;;;;;10346730;28;20702;-65
2021/10/26 16:32:30;;;;;;;3.50;1.93;;;18.20;65.70;;;;;;10363552;28;20239;-65
2021/10/26 16:37:54;;;;;;;4.10;2.40;;;18.20;65.70;;;;;;10361127;28;20234;-65
2021/10/26 16:43:28;;;;;;;2.40;1.97;;;18.20;65.80;;;;;;10364571;28;20199;-66
2021/10/26 16:48:50;;;;;;;2.53;2.00;;;18.20;65.70;;;;;;10372529;28;20753;-66
2021/10/26 16:54:15;;;;;;;2.80;1.93;;;18.20;65.70;;;;;;10362866;28;20594;-65
2021/10/26 16:59:40;;;;;;;3.00;2.10;;;18.20;65.80;;;;;;10346614;28;20300;-66
2021/10/26 17:05:04;;;;;;;4.13;2.20;;;18.20;66.00;;;;;;10346589;28;20203;-66
2021/10/26 17:10:27;;;;;;;2.77;2.00;;;18.20;66.10;;;;;;10349864;28;20225;-65
2021/10/26 17:15:52;;;;;;;3.77;2.10;;;18.20;66.20;;;;;;10350190;28;20214;-65
2021/10/26 17:21:14;;;;;;;3.57;2.13;;;18.20;66.30;;;;;;10342958;28;20230;-65
2021/10/26 17:26:37;;;;;;;3.40;2.00;;;18.20;66.40;;;;;;10351619;28;20570;-65
2021/10/26 17:32:00;;;;;;;3.63;1.87;;;18.20;66.40;;;;;;10353966;28;20199;-66
2021/10/26 17:37:22;;;;;;;3.63;1.93;;;18.20;66.50;;;;;;10353053;28;20218;-65
2021/10/26 17:42:47;;;;;;;3.77;2.13;;;18.20;66.60;;;;;;10376083;28;20198;-65
2021/10/26 17:48:09;;;;;;;3.03;2.23;;;18.20;66.70;;;;;;10349016;28;20214;-65
2021/10/26 17:53:35;;;;;;;3.50;2.20;;;18.20;66.70;;;;;;10345945;28;20203;-65
2021/10/26 17:58:59;;;;;;;4.23;2.93;;;18.20;66.60;;;;;;10359889;28;20219;-65
2021/10/26 18:04:21;;;;;;;4.10;2.60;;;18.20;66.90;;;;;;10348563;28;20225;-65
2021/10/26 18:09:44;;;;;;;2.73;2.27;;;18.30;66.90;;;;;;10351858;28;20230;-65
2021/10/26 18:15:08;;;;;;;3.80;2.83;;;18.20;66.80;;;;;;10343929;28;20225;-66
2021/10/26 18:20:30;;;;;;;5.40;3.23;;;18.20;66.80;;;;;;10364107;28;20713;-65
2021/10/26 18:25:52;;;;;;;3.87;3.20;;;18.20;66.70;;;;;;10345070;28;20199;-65
2021/10/26 18:31:16;;;;;;;3.73;2.97;;;18.30;66.70;;;;;;10340462;28;20215;-65
2021/10/26 18:36:38;;;;;;;5.03;3.33;;;18.30;66.70;;;;;;10353461;28;20578;-65
2021/10/26 18:42:02;;;;;;;3.97;2.93;;;18.30;66.70;;;;;;10353841;28;20198;-65
2021/10/26 18:47:25;;;;;;;4.30;3.27;;;18.30;66.70;;;;;;10361965;28;20225;-65
2021/10/26 18:52:48;;;;;;;7.27;3.40;;;18.20;66.60;;;;;;10352635;28;20206;-65
2021/10/26 18:58:10;;;;;;;4.63;3.20;;;18.30;66.70;;;;;;10349912;28;20223;-65
2021/10/26 19:03:34;;;;;;;3.63;2.80;;;18.30;66.70;;;;;;10355895;28;20208;-65
2021/10/26 19:08:56;;;;;;;7.10;3.00;;;18.30;66.80;;;;;;10354515;28;20605;-65
2021/10/26 19:14:18;;;;;;;3.30;2.60;;;18.30;67.00;;;;;;10369053;28;20199;-65
2021/10/26 19:19:42;;;;;;;3.50;2.83;;;18.40;67.10;;;;;;10369531;28;20446;-70
2021/10/26 19:25:05;;;;;;;4.47;2.80;;;18.90;65.50;;;;;;10401951;28;20676;-70
2021/10/26 19:30:28;;;;;;;3.83;2.50;;;18.60;66.10;;;;;;10414337;28;20607;-69
2021/10/26 19:35:51;;;;;;;4.07;2.50;;;18.40;66.60;;;;;;10394947;28;20210;-70
2021/10/26 19:41:13;;;;;;;3.27;2.83;;;18.30;66.80;;;;;;10370657;28;20218;-69
2021/10/26 19:46:40;;;;;;;3.93;2.90;;;18.30;66.80;;;;;;10340702;28;20574;-70
2021/10/26 19:52:07;;;;;;;4.10;2.70;;;18.30;66.90;;;;;;10341348;28;20213;-69
2021/10/26 19:57:29;;;;;;;3.27;2.20;;;18.20;66.90;;;;;;10347308;28;20698;-69
2021/10/26 20:02:54;;;;;;;4.07;2.40;;;18.30;66.90;;;;;;10345031;28;20208;-70
2021/10/26 20:08:18;;;;;;;3.53;2.33;;;18.20;66.90;;;;;;10349006;28;20226;-69
2021/10/26 20:13:40;;;;;;;3.50;2.50;;;18.20;66.90;;;;;;10348770;28;20199;-69
2021/10/26 20:19:05;;;;;;;4.77;2.33;;;18.20;66.80;;;;;;10348044;28;20240;-70
2021/10/26 20:24:42;;;;;;;3.17;2.00;;;18.20;66.80;;;;;;10347280;28;20202;-69
2021/10/26 20:30:07;;;;;;;3.57;2.13;;;18.20;66.80;;;;;;10342127;28;20206;-69
2021/10/26 20:35:29;;;;;;;2.53;1.83;;;18.30;66.80;;;;;;10342378;28;20257;-69
2021/10/26 20:40:52;;;;;;;3.67;2.10;;;18.20;67.00;;;;;;10347413;28;20301;-70
2021/10/26 20:46:14;;;;;;;2.97;1.83;;;18.20;66.80;;;;;;10339566;28;20731;-69
2021/10/26 20:51:38;;;;;;;3.33;1.87;;;18.20;66.70;;;;;;10346170;28;20563;-70
2021/10/26 20:57:02;;;;;;;3.57;2.00;;;18.20;66.60;;;;;;10339336;28;20219;-69
2021/10/26 21:02:24;;;;;;;2.90;1.70;;;18.10;66.50;;;;;;10352423;28;20203;-70
2021/10/26 21:07:47;;;;;;;3.87;1.83;;;18.10;66.50;;;;;;10345632;28;20218;-69
2021/10/26 21:13:10;;;;;;;5.70;2.07;;;18.10;66.50;;;;;;10341934;28;20590;-70
2021/10/26 21:18:32;;;;;;;3.20;2.13;;;18.10;66.70;;;;;;10345981;28;20234;-70
2021/10/26 21:23:54;;;;;;;6.67;2.47;;;18.00;66.80;;;;;;10343849;28;20199;-70
2021/10/26 21:29:18;;;;;;;3.53;2.33;;;18.00;67.00;;;;;;10342014;28;20215;-69
2021/10/26 21:34:43;;;;;;;3.13;1.90;;;17.90;67.10;;;;;;10341978;28;20194;-70
2021/10/26 21:40:08;;;;;;;3.70;2.10;;;17.90;67.30;;;;;;10357538;28;20229;-70
2021/10/26 21:45:31;;;;;;;4.50;1.87;;;17.90;67.50;;;;;;10377573;28;20202;-70
2021/10/26 21:50:54;;;;;;;4.67;2.00;;;17.90;67.70;;;;;;10369016;28;20590;-70
2021/10/26 21:56:17;;;;;;;3.27;1.90;;;17.80;67.90;;;;;;10368599;28;20242;-70
2021/10/26 22:01:43;;;;;;;3.70;1.97;;;17.80;68.00;;;;;;10371267;28;20218;-70
2021/10/26 22:07:05;;;;;;;3.47;2.33;;;17.80;68.70;;;;;;10369537;28;20739;-69
2021/10/26 22:12:27;;;;;;;4.33;1.80;;;17.80;68.30;;;;;;10373359;23;20227;-65
2021/10/26 22:17:51;;;;;;;3.47;1.87;;;17.80;68.30;;;;;;10370775;28;20221;-65
2021/10/26 22:23:13;;;;;;;2.73;1.50;;;17.90;68.20;;;;;;10357789;28;20309;-65
2021/10/26 22:28:36;;;;;;;3.17;1.63;;;17.90;68.20;;;;;;10336128;28;20201;-66
2021/10/26 22:33:59;;;;;;;3.90;1.87;;;17.90;68.00;;;;;;10335887;28;20721;-66
2021/10/26 22:39:21;;;;;;;5.33;2.03;;;17.90;67.90;;;;;;10335912;28;20646;-66
2021/10/26 22:44:44;;;;;;;5.33;2.40;;;17.90;67.80;;;;;;10344539;28;20202;-66
2021/10/26 22:50:08;;;;;;;4.23;2.07;;;17.90;67.80;;;;;;10335297;28;20441;-66
2021/10/26 22:55:30;;;;;;;3.23;2.10;;;17.90;67.90;;;;;;10362524;28;20210;-66
2021/10/26 23:00:52;;;;;;;3.80;1.70;;;17.80;67.90;;;;;;10368115;28;20234;-66
2021/10/26 23:06:16;;;;;;;2.37;1.80;;;17.80;67.90;;;;;;10342826;28;20207;-65
2021/10/26 23:11:38;;;;;;;3.47;1.83;;;17.80;68.00;;;;;;10334438;28;20222;-65
2021/10/26 23:17:00;;;;;;;3.70;1.90;;;17.80;68.00;;;;;;10334318;28;20222;-66
2021/10/26 23:22:24;;;;;;;6.40;1.87;;;17.80;68.10;;;;;;10358240;28;20685;-65
2021/10/26 23:27:46;;;;;;;3.00;2.00;;;17.90;68.00;;;;;;10333872;28;20203;-66
2021/10/26 23:33:08;;;;;;;3.73;2.03;;;17.80;67.60;;;;;;10333589;28;20222;-66
2021/10/26 23:51:57;;;;;;;5.60;1.70;;;17.90;67.50;;;;;;10334114;28;20198;-66
2021/10/26 23:57:21;;;;;;;4.07;1.80;;;17.80;67.60;;;;;;10341352;28;20223;-65
